Long Valley, NJ (07853)

11:25 PM EDT on May 05, 2015 (GMT -0400)
Pleasant Grove | | Change Station
CLOSE
Current Station
Personal Weather Station
Location: Long Valley, NJ
Elevation: 994 ft
Nearby Weather Stations

Elev 994 ft 40.78 °N, 74.83 °W | Updated 24 seconds ago

Overcast
Overcast
66.5 °F
Feels Like 66.5 °F
N
0.0
Wind Variable Wind from North
Gusts 0.0 mph

Today
High -- | Low -- °F
--% Chance of Precip.
Yesterday
High -- | Low -- °F
Precip. -- in
5:52 AM 7:59 PM
Waning Gibbous, 96% visible
Pressure 30.17 in
Visibility 10.0 miles
Clouds Scattered Clouds 11000 ft
Dew Point 56 °F
Humidity 70%
Rainfall -999.00 in
Snow Depth Not available.
UV 0 out of 12
Pollen 10.00 out of 12
Air Quality Not available.
Flu Activity Local Activity
METAR KSMQ 060253Z AUTO 00000KT 10SM SCT110 18/14 A3017

More Conditions Fewer Conditions

Pressure 30.17 in
Visibility 10.0 miles
Clouds Scattered Clouds 11000 ft
Dew Point 56 °F
Humidity 70%
Rainfall -999.00 in
Snow Depth Not available.
UV 0 out of 12
Pollen 10.00 out of 12
Air Quality Not available.
Flu Activity Local Activity
METAR KSMQ 060253Z AUTO 00000KT 10SM SCT110 18/14 A3017

More Conditions Fewer Conditions

10-Day Weather Forecast

Almanac

Astronomy

May. 05, 2015 Rise Set
Actual Time
Civil Twilight
Nautical Twilight
Astronomical Twilight
Moon
Length of Visible Light
Length of Day
Tomorrow will be .
, % of the Moon is Illuminated

Today's Extremes

State Highs State Lows

Community

WunderPhotos

Upload Photos

1,819,061 photos uploaded!

WunderBlogs® & News

Nearby

Air Quality

  Air Quality AQ Index Pollutant
Not available.

Snow Depth

Station Depth Elevation

Earthquake Activity

City Distance Mag. Time & Date
Minimum magnitude displayed is 2.5.

Coastal Water Temperatures

Place Temperature

Stations

Nearby Weather Stations

Station Location Temp. Windchill Dew Point Humidity Wind Precip. Elev Updated Type